Terminal Aerodrome Forecast
Issued by NWS

Home | Current Version | Previous Version | Text Only | Print | Product List | Glossary On
Versions: 1 2 3 4 5 6 7 8 9 10 11 12 13 14 15 16 17 18
000
FTUS45 KFGZ 310540
TAFGCN
TAF
KGCN 310540Z 3106/0106 VRB05KT P6SM SCT050 SCT120
     FM311800 22012KT P6SM SCT060 SCT100 PROB30 3119/0101 -TSRA
      BKN050CB
     FM010300 VRB05KT P6SM FEW070=

USA.gov is the U.S. government's official web portal to all federal, state and local government web resources and services.